Tunnel City, WI

3:35 PM CDT on July 24, 2014 (GMT -0500)
Sparta-Fort McCoy (KCMY) Elev 837 ft | 43.96 °N, 90.74 °W | Change Station

Current weather conditions updated 20 minutes ago

Mostly Cloudy
Mostly Cloudy
77 °F
Feels Like 77 °F
N
4
Wind Variable Wind from East

Today is forecast to be nearly the same temperature as yesterday. Scattered thunderstorms possible.

Today
High -- | Low -- °F
--% Chance of Precip.
Yesterday
High -- | Low -- °F
Precip. -- in
5:41 AM 8:34 PM
Waning Crescent, 4% visible
Pressure 30.07 in
Visibility 10.0 miles
Clouds Mostly Cloudy 6000 ft
Dew Point 48 °F
Humidity 36%
Rainfall 0.00 in
Snow Depth Not available.
UV 5 out of 12
Pollen 6.10 out of 12
Air Quality Not available.
Flu Activity Not available.
METAR KCMY 242015Z AUTO 09003KT 10SM BKN060 25/09 A3007 RMK AO2 T02490088

More Conditions Fewer Conditions

Pressure 30.07 in
Visibility 10.0 miles
Clouds Mostly Cloudy 6000 ft
Dew Point 48 °F
Humidity 36%
Rainfall 0.00 in
Snow Depth Not available.
UV 5 out of 12
Pollen 6.10 out of 12
Air Quality Not available.
Flu Activity Not available.
METAR KCMY 242015Z AUTO 09003KT 10SM BKN060 25/09 A3007 RMK AO2 T02490088

More Conditions Fewer Conditions

10-Day Weather Forecast

Almanac

Astronomy

Jul. 24, 2014 Rise Set
Actual Time 5:41 AM CDT 8:34 PM CDT
Civil Twilight 5:08 AM CDT 9:08 PM CDT
Nautical Twilight 4:24 AM CDT 9:51 PM CDT
Astronomical Twilight 3:34 AM CDT 10:41 PM CDT
Moon 3:50 AM CDT 6:49 PM CDT
Length of Visible Light 16h 00m
Length of Day
14h 52m
Tomorrow will be 2m 3s shorter.
Waning Crescent, 4% of the Moon is Illuminated
Today
Waning Crescent
Jul 26
New
Aug 3
First Quarter
Aug 10
Full
Aug 17
Last Quarter

Today's Extremes

State Highs State Lows

Community

WunderPhotos

Upload Photos

1,737,123 photos uploaded!

Nearby

Snow Depth

Station Depth Elevation
No new snow has been reported.

Earthquake Activity

City Distance Mag. Time & Date
No recent earthquake activity has been reported nearby.
Minimum magnitude displayed is 2.5.

Coastal Water Temperatures

Place Temperature
No Stations Reporting

Nearby Weather Stations

Station Location Temp. Heat Index Dew Point Humidity Wind Precip. Elev Updated Type
Water Mill, Tomah, WI 78.3 °F 79 °F 55 °F 44% WSW  at  0.0 mph 0.00 in / hr 950 ft 3:34 PM CDT Rapid Fire
MesoWest WARENS , Warrens, WI 77 °F 75 °F - - North  at  - 0.00 in / hr 977 ft 1:55 PM CDT MADIS
Kendall, Wi., Kendall, WI 84.2 °F 82 °F 45 °F 25% SE  at  4.6 mph 0.00 in / hr 1021 ft 3:35 PM CDT Rapid Fire
New Lisbon, WI 79.4 °F 80 °F 60 °F 52% SW  at  4.0 mph 0.00 in / hr 891 ft 3:35 PM CDT Rapid Fire
RAWS NECEDAH WI, Necedah, WI 81 °F 80 °F 49 °F 33% SSW  at  7 mph 0.00 in / hr 950 ft 2:48 PM CDT MADIS

Show More Stations Show Fewer Stations